sensor_id;sensor_type;location;lat;lon;timestamp;pressure;altitude;pressure_sealevel;temperature;humidity
64521;BME280;50896;46.714;17.322;2023-05-11T00:01:43;100313.47;;;13.49;74.03
64521;BME280;50896;46.714;17.322;2023-05-11T00:04:10;100315.09;;;13.50;74.14
64521;BME280;50896;46.714;17.322;2023-05-11T00:06:37;100311.63;;;13.50;73.81
64521;BME280;50896;46.714;17.322;2023-05-11T00:09:04;100308.19;;;13.56;73.65
64521;BME280;50896;46.714;17.322;2023-05-11T00:11:31;100314.91;;;13.52;73.78
64521;BME280;50896;46.714;17.322;2023-05-11T00:13:58;100315.75;;;13.53;73.09
64521;BME280;50896;46.714;17.322;2023-05-11T00:16:24;100310.22;;;13.54;72.48
64521;BME280;50896;46.714;17.322;2023-05-11T00:18:51;100300.94;;;13.50;72.74
64521;BME280;50896;46.714;17.322;2023-05-11T00:21:18;100303.03;;;13.55;72.41
64521;BME280;50896;46.714;17.322;2023-05-11T00:23:45;100310.34;;;13.61;71.62
64521;BME280;50896;46.714;17.322;2023-05-11T00:26:12;100302.56;;;13.66;70.87
64521;BME280;50896;46.714;17.322;2023-05-11T00:28:41;100307.84;;;13.59;71.39
64521;BME280;50896;46.714;17.322;2023-05-11T00:31:08;100301.84;;;13.72;70.42
64521;BME280;50896;46.714;17.322;2023-05-11T00:33:35;100294.94;;;13.63;70.98
64521;BME280;50896;46.714;17.322;2023-05-11T00:36:02;100290.34;;;13.57;71.02
64521;BME280;50896;46.714;17.322;2023-05-11T00:38:30;100300.47;;;13.61;70.78
64521;BME280;50896;46.714;17.322;2023-05-11T00:40:57;100296.31;;;13.59;70.32
64521;BME280;50896;46.714;17.322;2023-05-11T00:43:24;100293.47;;;13.60;70.07
64521;BME280;50896;46.714;17.322;2023-05-11T00:45:51;100289.50;;;13.56;69.25
64521;BME280;50896;46.714;17.322;2023-05-11T00:48:18;100284.63;;;13.60;68.68
64521;BME280;50896;46.714;17.322;2023-05-11T00:50:45;100276.53;;;13.53;69.48
64521;BME280;50896;46.714;17.322;2023-05-11T00:53:13;100286.09;;;13.62;68.77
64521;BME280;50896;46.714;17.322;2023-05-11T00:55:40;100279.47;;;13.58;68.21
64521;BME280;50896;46.714;17.322;2023-05-11T00:58:07;100289.78;;;13.61;68.12
64521;BME280;50896;46.714;17.322;2023-05-11T01:00:34;100286.81;;;13.56;67.82
64521;BME280;50896;46.714;17.322;2023-05-11T01:03:03;100275.41;;;13.47;68.47
64521;BME280;50896;46.714;17.322;2023-05-11T01:05:40;100282.34;;;13.57;68.29
64521;BME280;50896;46.714;17.322;2023-05-11T01:08:15;100281.84;;;13.53;68.43
64521;BME280;50896;46.714;17.322;2023-05-11T01:11:02;100289.25;;;13.51;68.30
64521;BME280;50896;46.714;17.322;2023-05-11T01:13:38;100268.97;;;13.42;68.21
64521;BME280;50896;46.714;17.322;2023-05-11T01:16:14;100284.53;;;13.53;67.81
64521;BME280;50896;46.714;17.322;2023-05-11T01:18:50;100286.66;;;13.58;67.42
64521;BME280;50896;46.714;17.322;2023-05-11T01:21:19;100276.91;;;13.50;67.34
64521;BME280;50896;46.714;17.322;2023-05-11T01:29:21;100273.03;;;13.38;67.67
64521;BME280;50896;46.714;17.322;2023-05-11T01:31:57;100277.72;;;13.36;67.89
64521;BME280;50896;46.714;17.322;2023-05-11T01:34:29;100269.97;;;13.41;67.08
64521;BME280;50896;46.714;17.322;2023-05-11T01:37:08;100263.19;;;13.38;67.41
64521;BME280;50896;46.714;17.322;2023-05-11T01:39:39;100276.34;;;13.40;67.02
64521;BME280;50896;46.714;17.322;2023-05-11T01:42:09;100275.31;;;13.41;66.98
64521;BME280;50896;46.714;17.322;2023-05-11T01:44:41;100257.53;;;13.33;67.23
64521;BME280;50896;46.714;17.322;2023-05-11T01:47:10;100261.88;;;13.34;68.09
64521;BME280;50896;46.714;17.322;2023-05-11T01:49:39;100267.88;;;13.36;67.71
64521;BME280;50896;46.714;17.322;2023-05-11T01:52:10;100261.28;;;13.24;68.22
64521;BME280;50896;46.714;17.322;2023-05-11T01:54:39;100270.88;;;13.33;68.09
64521;BME280;50896;46.714;17.322;2023-05-11T01:57:08;100265.44;;;13.26;68.01
64521;BME280;50896;46.714;17.322;2023-05-11T01:59:38;100260.75;;;13.28;68.01
64521;BME280;50896;46.714;17.322;2023-05-11T02:02:07;100246.03;;;13.18;68.41
64521;BME280;50896;46.714;17.322;2023-05-11T02:04:36;100249.63;;;13.25;68.21
64521;BME280;50896;46.714;17.322;2023-05-11T02:07:06;100254.75;;;13.26;68.14
64521;BME280;50896;46.714;17.322;2023-05-11T02:09:34;100253.47;;;13.22;68.90
64521;BME280;50896;46.714;17.322;2023-05-11T02:12:03;100259.00;;;13.21;69.00
64521;BME280;50896;46.714;17.322;2023-05-11T02:14:33;100257.25;;;13.28;68.72
64521;BME280;50896;46.714;17.322;2023-05-11T02:17:03;100247.13;;;13.23;68.63
64521;BME280;50896;46.714;17.322;2023-05-11T02:19:34;100251.88;;;13.13;69.31
64521;BME280;50896;46.714;17.322;2023-05-11T02:22:03;100253.84;;;13.19;68.68
64521;BME280;50896;46.714;17.322;2023-05-11T02:24:32;100252.19;;;13.18;68.44
64521;BME280;50896;46.714;17.322;2023-05-11T02:27:00;100255.50;;;13.20;68.50
64521;BME280;50896;46.714;17.322;2023-05-11T02:29:27;100255.22;;;13.15;68.78
64521;BME280;50896;46.714;17.322;2023-05-11T02:32:08;100254.56;;;13.13;68.27
64521;BME280;50896;46.714;17.322;2023-05-11T02:34:41;100255.31;;;13.07;68.29
64521;BME280;50896;46.714;17.322;2023-05-11T02:37:11;100255.41;;;13.13;68.00
64521;BME280;50896;46.714;17.322;2023-05-11T02:39:40;100253.56;;;13.14;67.98
64521;BME280;50896;46.714;17.322;2023-05-11T02:42:13;100261.28;;;13.09;68.21
64521;BME280;50896;46.714;17.322;2023-05-11T02:44:46;100252.63;;;13.07;68.34
64521;BME280;50896;46.714;17.322;2023-05-11T02:47:17;100254.00;;;13.03;68.14
64521;BME280;50896;46.714;17.322;2023-05-11T02:49:46;100256.03;;;13.01;68.48
64521;BME280;50896;46.714;17.322;2023-05-11T02:52:21;100257.69;;;13.02;69.12
64521;BME280;50896;46.714;17.322;2023-05-11T02:54:50;100260.16;;;13.03;69.15
64521;BME280;50896;46.714;17.322;2023-05-11T02:57:19;100255.00;;;13.02;69.76
64521;BME280;50896;46.714;17.322;2023-05-11T02:59:46;100255.00;;;13.02;71.49
64521;BME280;50896;46.714;17.322;2023-05-11T03:02:13;100252.00;;;13.05;71.83
64521;BME280;50896;46.714;17.322;2023-05-11T03:04:41;100246.94;;;13.10;72.67
64521;BME280;50896;46.714;17.322;2023-05-11T03:07:08;100248.59;;;13.11;72.08
64521;BME280;50896;46.714;17.322;2023-05-11T03:09:35;100242.97;;;13.06;73.44
64521;BME280;50896;46.714;17.322;2023-05-11T03:12:03;100242.44;;;13.10;73.98
64521;BME280;50896;46.714;17.322;2023-05-11T03:14:33;100249.34;;;13.05;73.77
64521;BME280;50896;46.714;17.322;2023-05-11T03:17:02;100242.06;;;13.13;72.90
64521;BME280;50896;46.714;17.322;2023-05-11T03:19:30;100234.13;;;13.05;72.92
64521;BME280;50896;46.714;17.322;2023-05-11T03:21:58;100233.22;;;13.13;72.44
64521;BME280;50896;46.714;17.322;2023-05-11T03:24:26;100231.91;;;13.09;72.70
64521;BME280;50896;46.714;17.322;2023-05-11T03:26:54;100222.00;;;13.03;73.14
64521;BME280;50896;46.714;17.322;2023-05-11T03:29:24;100214.53;;;13.13;71.80
64521;BME280;50896;46.714;17.322;2023-05-11T03:31:53;100233.69;;;13.16;71.89
64521;BME280;50896;46.714;17.322;2023-05-11T03:34:22;100218.47;;;13.17;72.28
64521;BME280;50896;46.714;17.322;2023-05-11T03:36:49;100223.09;;;13.23;71.79
64521;BME280;50896;46.714;17.322;2023-05-11T03:39:20;100227.97;;;13.20;71.84
64521;BME280;50896;46.714;17.322;2023-05-11T03:41:48;100220.16;;;13.18;72.41
64521;BME280;50896;46.714;17.322;2023-05-11T03:44:16;100216.47;;;13.19;71.38
64521;BME280;50896;46.714;17.322;2023-05-11T03:46:49;100212.06;;;13.26;70.71
64521;BME280;50896;46.714;17.322;2023-05-11T03:49:17;100213.81;;;13.19;71.47
64521;BME280;50896;46.714;17.322;2023-05-11T03:51:45;100224.78;;;13.24;70.90
64521;BME280;50896;46.714;17.322;2023-05-11T03:54:13;100224.09;;;13.22;70.75
64521;BME280;50896;46.714;17.322;2023-05-11T03:56:40;100221.72;;;13.27;70.54
64521;BME280;50896;46.714;17.322;2023-05-11T03:59:07;100215.81;;;13.17;70.63
64521;BME280;50896;46.714;17.322;2023-05-11T04:01:35;100217.03;;;13.14;71.06
64521;BME280;50896;46.714;17.322;2023-05-11T04:04:02;100219.97;;;13.20;69.63
64521;BME280;50896;46.714;17.322;2023-05-11T04:06:29;100213.34;;;13.15;69.50
64521;BME280;50896;46.714;17.322;2023-05-11T04:09:07;100229.53;;;13.14;70.68
64521;BME280;50896;46.714;17.322;2023-05-11T04:11:37;100217.66;;;13.16;69.31
64521;BME280;50896;46.714;17.322;2023-05-11T04:14:04;100224.09;;;13.22;69.23
64521;BME280;50896;46.714;17.322;2023-05-11T04:16:31;100232.69;;;13.18;70.36
64521;BME280;50896;46.714;17.322;2023-05-11T04:18:59;100225.13;;;13.21;69.74
64521;BME280;50896;46.714;17.322;2023-05-11T04:21:27;100227.16;;;13.19;70.11
64521;BME280;50896;46.714;17.322;2023-05-11T04:23:54;100222.63;;;13.20;70.78
64521;BME280;50896;46.714;17.322;2023-05-11T04:26:21;100231.03;;;13.31;70.35
64521;BME280;50896;46.714;17.322;2023-05-11T04:28:48;100239.41;;;13.28;69.77
64521;BME280;50896;46.714;17.322;2023-05-11T04:31:14;100239.13;;;13.23;69.20
64521;BME280;50896;46.714;17.322;2023-05-11T04:33:42;100236.56;;;13.30;68.47
64521;BME280;50896;46.714;17.322;2023-05-11T04:36:09;100233.31;;;13.34;68.55
64521;BME280;50896;46.714;17.322;2023-05-11T04:38:37;100240.03;;;13.30;68.29
64521;BME280;50896;46.714;17.322;2023-05-11T04:41:06;100237.38;;;13.30;68.84
64521;BME280;50896;46.714;17.322;2023-05-11T04:43:34;100241.16;;;13.36;69.08
64521;BME280;50896;46.714;17.322;2023-05-11T04:46:01;100242.53;;;13.32;69.56
64521;BME280;50896;46.714;17.322;2023-05-11T04:48:28;100248.19;;;13.37;69.82
64521;BME280;50896;46.714;17.322;2023-05-11T04:50:55;100229.16;;;13.32;68.95
64521;BME280;50896;46.714;17.322;2023-05-11T04:53:27;100245.69;;;13.36;69.77
64521;BME280;50896;46.714;17.322;2023-05-11T04:55:54;100240.78;;;13.39;69.88
64521;BME280;50896;46.714;17.322;2023-05-11T04:58:21;100238.13;;;13.39;68.57
64521;BME280;50896;46.714;17.322;2023-05-11T05:00:48;100239.97;;;13.39;68.75
64521;BME280;50896;46.714;17.322;2023-05-11T05:03:14;100243.03;;;13.36;69.61
64521;BME280;50896;46.714;17.322;2023-05-11T05:05:41;100246.97;;;13.40;68.90
64521;BME280;50896;46.714;17.322;2023-05-11T05:08:08;100254.88;;;13.33;68.76
64521;BME280;50896;46.714;17.322;2023-05-11T05:10:36;100253.31;;;13.39;68.53
64521;BME280;50896;46.714;17.322;2023-05-11T05:13:03;100255.91;;;13.47;67.67
64521;BME280;50896;46.714;17.322;2023-05-11T05:15:30;100249.09;;;13.44;68.32
64521;BME280;50896;46.714;17.322;2023-05-11T05:17:57;100256.19;;;13.37;69.06
64521;BME280;50896;46.714;17.322;2023-05-11T05:20:24;100239.31;;;13.22;69.96
64521;BME280;50896;46.714;17.322;2023-05-11T05:22:51;100258.28;;;13.42;67.77
64521;BME280;50896;46.714;17.322;2023-05-11T05:25:18;100250.66;;;13.39;67.72
64521;BME280;50896;46.714;17.322;2023-05-11T05:27:45;100255.72;;;13.48;67.89
64521;BME280;50896;46.714;17.322;2023-05-11T05:30:16;100254.91;;;13.48;67.89
64521;BME280;50896;46.714;17.322;2023-05-11T05:32:44;100259.88;;;13.51;69.37
64521;BME280;50896;46.714;17.322;2023-05-11T05:35:11;100262.53;;;13.51;68.71
64521;BME280;50896;46.714;17.322;2023-05-11T05:37:40;100263.16;;;13.53;68.09
64521;BME280;50896;46.714;17.322;2023-05-11T05:40:07;100258.19;;;13.50;67.46
64521;BME280;50896;46.714;17.322;2023-05-11T05:42:39;100267.31;;;13.56;67.32
64521;BME280;50896;46.714;17.322;2023-05-11T05:45:09;100263.25;;;13.60;66.06
64521;BME280;50896;46.714;17.322;2023-05-11T05:47:39;100260.78;;;13.58;66.08
64521;BME280;50896;46.714;17.322;2023-05-11T05:50:07;100267.50;;;13.54;66.54
64521;BME280;50896;46.714;17.322;2023-05-11T05:52:34;100265.34;;;13.64;65.73
64521;BME280;50896;46.714;17.322;2023-05-11T05:55:02;100265.66;;;13.55;67.26
64521;BME280;50896;46.714;17.322;2023-05-11T05:57:28;100275.97;;;13.58;67.23
64521;BME280;50896;46.714;17.322;2023-05-11T05:59:56;100263.25;;;13.60;67.02
64521;BME280;50896;46.714;17.322;2023-05-11T06:02:23;100267.50;;;13.69;67.20
64521;BME280;50896;46.714;17.322;2023-05-11T06:04:50;100258.72;;;13.75;65.54
64521;BME280;50896;46.714;17.322;2023-05-11T06:07:17;100267.84;;;13.81;65.75
64521;BME280;50896;46.714;17.322;2023-05-11T06:09:43;100272.34;;;13.80;65.34
64521;BME280;50896;46.714;17.322;2023-05-11T06:12:10;100268.31;;;13.84;65.37
64521;BME280;50896;46.714;17.322;2023-05-11T06:14:42;100273.72;;;13.91;65.92
64521;BME280;50896;46.714;17.322;2023-05-11T06:17:08;100259.63;;;13.82;67.02
64521;BME280;50896;46.714;17.322;2023-05-11T06:19:35;100279.31;;;13.96;66.43
64521;BME280;50896;46.714;17.322;2023-05-11T06:22:02;100269.72;;;14.02;65.43
64521;BME280;50896;46.714;17.322;2023-05-11T06:24:33;100272.97;;;13.97;64.37
64521;BME280;50896;46.714;17.322;2023-05-11T06:27:00;100280.88;;;14.06;64.71
64521;BME280;50896;46.714;17.322;2023-05-11T06:29:28;100278.63;;;14.09;64.65
64521;BME280;50896;46.714;17.322;2023-05-11T06:31:56;100278.38;;;14.04;65.87
64521;BME280;50896;46.714;17.322;2023-05-11T06:34:23;100277.31;;;14.20;64.18
64521;BME280;50896;46.714;17.322;2023-05-11T06:36:50;100278.97;;;14.21;64.92
64521;BME280;50896;46.714;17.322;2023-05-11T06:39:17;100279.06;;;14.28;64.44
64521;BME280;50896;46.714;17.322;2023-05-11T06:41:44;100282.81;;;14.33;64.51
64521;BME280;50896;46.714;17.322;2023-05-11T06:44:10;100282.69;;;14.42;63.46
64521;BME280;50896;46.714;17.322;2023-05-11T06:46:42;100282.13;;;14.46;63.47
64521;BME280;50896;46.714;17.322;2023-05-11T06:49:09;100286.31;;;14.56;62.51
64521;BME280;50896;46.714;17.322;2023-05-11T06:51:35;100285.88;;;14.52;63.13
64521;BME280;50896;46.714;17.322;2023-05-11T06:54:02;100287.03;;;14.64;64.07
64521;BME280;50896;46.714;17.322;2023-05-11T06:56:29;100281.63;;;14.79;63.07
64521;BME280;50896;46.714;17.322;2023-05-11T06:58:57;100284.16;;;14.88;61.79
64521;BME280;50896;46.714;17.322;2023-05-11T07:01:24;100270.53;;;14.82;61.84
64521;BME280;50896;46.714;17.322;2023-05-11T07:03:53;100274.22;;;14.81;61.98
64521;BME280;50896;46.714;17.322;2023-05-11T07:06:20;100274.72;;;14.92;62.03
64521;BME280;50896;46.714;17.322;2023-05-11T07:08:47;100272.63;;;14.87;62.77
64521;BME280;50896;46.714;17.322;2023-05-11T07:11:14;100284.59;;;14.91;62.79
64521;BME280;50896;46.714;17.322;2023-05-11T07:13:41;100284.44;;;14.99;63.19
64521;BME280;50896;46.714;17.322;2023-05-11T07:16:10;100280.97;;;14.99;63.64
64521;BME280;50896;46.714;17.322;2023-05-11T07:18:38;100272.94;;;15.06;63.25
64521;BME280;50896;46.714;17.322;2023-05-11T07:21:05;100270.19;;;14.92;61.83
64521;BME280;50896;46.714;17.322;2023-05-11T07:23:32;100276.28;;;15.08;62.29
64521;BME280;50896;46.714;17.322;2023-05-11T07:26:00;100276.47;;;15.06;63.45
64521;BME280;50896;46.714;17.322;2023-05-11T07:28:29;100270.78;;;15.16;63.11
64521;BME280;50896;46.714;17.322;2023-05-11T07:30:56;100274.72;;;15.20;63.87
64521;BME280;50896;46.714;17.322;2023-05-11T07:33:23;100273.06;;;15.19;60.85
64521;BME280;50896;46.714;17.322;2023-05-11T07:35:50;100269.22;;;15.28;61.65
64521;BME280;50896;46.714;17.322;2023-05-11T07:38:17;100270.06;;;15.35;62.96
64521;BME280;50896;46.714;17.322;2023-05-11T07:40:44;100272.16;;;15.40;61.99
64521;BME280;50896;46.714;17.322;2023-05-11T07:43:11;100271.94;;;15.35;63.13
64521;BME280;50896;46.714;17.322;2023-05-11T07:45:38;100270.88;;;15.36;61.46
64521;BME280;50896;46.714;17.322;2023-05-11T07:48:05;100272.22;;;15.53;61.91
64521;BME280;50896;46.714;17.322;2023-05-11T07:50:32;100268.34;;;15.63;61.85
64521;BME280;50896;46.714;17.322;2023-05-11T07:52:59;100265.50;;;15.64;61.19
64521;BME280;50896;46.714;17.322;2023-05-11T07:55:25;100260.97;;;15.71;60.53
64521;BME280;50896;46.714;17.322;2023-05-11T07:57:52;100258.78;;;15.82;60.70
64521;BME280;50896;46.714;17.322;2023-05-11T08:00:22;100262.28;;;15.89;61.54
64521;BME280;50896;46.714;17.322;2023-05-11T08:02:49;100269.72;;;15.87;61.72
64521;BME280;50896;46.714;17.322;2023-05-11T08:05:16;100265.63;;;15.91;62.98
64521;BME280;50896;46.714;17.322;2023-05-11T08:07:44;100266.06;;;16.01;63.30
64521;BME280;50896;46.714;17.322;2023-05-11T08:10:12;100259.06;;;16.14;60.02
64521;BME280;50896;46.714;17.322;2023-05-11T08:12:38;100266.91;;;16.15;60.48
64521;BME280;50896;46.714;17.322;2023-05-11T08:15:06;100259.91;;;16.14;58.86
64521;BME280;50896;46.714;17.322;2023-05-11T08:17:33;100268.78;;;16.15;59.30
64521;BME280;50896;46.714;17.322;2023-05-11T08:20:00;100250.63;;;16.23;58.76
64521;BME280;50896;46.714;17.322;2023-05-11T08:22:26;100256.03;;;16.30;59.19
64521;BME280;50896;46.714;17.322;2023-05-11T08:24:53;100244.25;;;16.38;59.12
64521;BME280;50896;46.714;17.322;2023-05-11T08:27:20;100251.72;;;16.43;60.34
64521;BME280;50896;46.714;17.322;2023-05-11T08:29:47;100262.22;;;16.37;58.26
64521;BME280;50896;46.714;17.322;2023-05-11T08:32:14;100258.09;;;16.42;59.29
64521;BME280;50896;46.714;17.322;2023-05-11T08:34:40;100241.16;;;16.48;57.62
64521;BME280;50896;46.714;17.322;2023-05-11T08:37:07;100251.28;;;16.39;57.77
64521;BME280;50896;46.714;17.322;2023-05-11T08:39:34;100244.28;;;16.51;57.99
64521;BME280;50896;46.714;17.322;2023-05-11T08:42:14;100242.22;;;16.60;57.71
64521;BME280;50896;46.714;17.322;2023-05-11T08:44:42;100245.31;;;16.64;57.75
64521;BME280;50896;46.714;17.322;2023-05-11T08:47:10;100249.25;;;16.68;57.74
64521;BME280;50896;46.714;17.322;2023-05-11T08:49:40;100240.34;;;16.74;58.07
64521;BME280;50896;46.714;17.322;2023-05-11T08:52:08;100231.06;;;16.77;58.56
64521;BME280;50896;46.714;17.322;2023-05-11T08:54:36;100229.22;;;16.70;59.06
64521;BME280;50896;46.714;17.322;2023-05-11T08:57:03;100228.16;;;16.78;59.02
64521;BME280;50896;46.714;17.322;2023-05-11T08:59:30;100224.88;;;16.89;57.71
64521;BME280;50896;46.714;17.322;2023-05-11T09:01:59;100232.50;;;16.92;58.44
64521;BME280;50896;46.714;17.322;2023-05-11T09:04:26;100231.31;;;16.88;57.38
64521;BME280;50896;46.714;17.322;2023-05-11T09:06:54;100223.84;;;16.97;57.16
64521;BME280;50896;46.714;17.322;2023-05-11T09:09:23;100236.66;;;16.95;57.13
64521;BME280;50896;46.714;17.322;2023-05-11T09:11:50;100228.00;;;17.00;55.80
64521;BME280;50896;46.714;17.322;2023-05-11T09:14:17;100215.38;;;17.00;56.90
64521;BME280;50896;46.714;17.322;2023-05-11T09:16:44;100214.78;;;16.98;56.94
64521;BME280;50896;46.714;17.322;2023-05-11T09:19:13;100212.28;;;16.97;57.05
64521;BME280;50896;46.714;17.322;2023-05-11T09:21:41;100217.84;;;17.02;56.25
64521;BME280;50896;46.714;17.322;2023-05-11T09:24:11;100218.06;;;17.07;57.25
64521;BME280;50896;46.714;17.322;2023-05-11T09:26:38;100224.66;;;17.11;56.50
64521;BME280;50896;46.714;17.322;2023-05-11T09:29:05;100214.72;;;17.18;56.87
64521;BME280;50896;46.714;17.322;2023-05-11T09:31:52;100215.31;;;17.27;55.30
64521;BME280;50896;46.714;17.322;2023-05-11T09:34:21;100216.53;;;17.31;54.97
64521;BME280;50896;46.714;17.322;2023-05-11T09:36:50;100216.72;;;17.36;56.02
64521;BME280;50896;46.714;17.322;2023-05-11T09:39:27;100212.38;;;17.42;56.01
64521;BME280;50896;46.714;17.322;2023-05-11T09:44:41;100197.66;;;17.51;56.62
64521;BME280;50896;46.714;17.322;2023-05-11T09:47:18;100198.25;;;17.60;57.08
64521;BME280;50896;46.714;17.322;2023-05-11T09:49:47;100200.81;;;17.80;55.62
64521;BME280;50896;46.714;17.322;2023-05-11T09:52:17;100192.59;;;17.75;55.07
64521;BME280;50896;46.714;17.322;2023-05-11T09:54:49;100192.63;;;17.68;56.58
64521;BME280;50896;46.714;17.322;2023-05-11T09:57:29;100204.13;;;17.82;57.03
64521;BME280;50896;46.714;17.322;2023-05-11T09:59:58;100186.94;;;17.83;57.92
64521;BME280;50896;46.714;17.322;2023-05-11T10:02:27;100187.56;;;17.92;56.89
64521;BME280;50896;46.714;17.322;2023-05-11T10:04:59;100179.69;;;17.90;55.73
64521;BME280;50896;46.714;17.322;2023-05-11T10:07:31;100187.94;;;17.96;54.12
64521;BME280;50896;46.714;17.322;2023-05-11T10:10:07;100177.03;;;17.84;55.07
64521;BME280;50896;46.714;17.322;2023-05-11T10:12:34;100177.28;;;17.75;55.11
64521;BME280;50896;46.714;17.322;2023-05-11T10:15:04;100179.53;;;17.79;54.46
64521;BME280;50896;46.714;17.322;2023-05-11T10:17:32;100185.13;;;17.77;54.36
64521;BME280;50896;46.714;17.322;2023-05-11T10:20:00;100177.72;;;17.72;54.40
64521;BME280;50896;46.714;17.322;2023-05-11T10:22:30;100168.44;;;17.68;54.82
64521;BME280;50896;46.714;17.322;2023-05-11T10:24:58;100167.81;;;17.66;55.87
64521;BME280;50896;46.714;17.322;2023-05-11T10:27:25;100165.56;;;17.63;56.15
64521;BME280;50896;46.714;17.322;2023-05-11T10:29:52;100169.69;;;17.66;56.27
64521;BME280;50896;46.714;17.322;2023-05-11T10:32:19;100150.88;;;17.59;56.02
64521;BME280;50896;46.714;17.322;2023-05-11T10:34:47;100147.41;;;17.52;55.00
64521;BME280;50896;46.714;17.322;2023-05-11T10:37:16;100155.47;;;17.58;56.11
64521;BME280;50896;46.714;17.322;2023-05-11T10:39:44;100164.97;;;17.61;55.41
64521;BME280;50896;46.714;17.322;2023-05-11T10:45:17;100150.06;;;17.65;55.25
64521;BME280;50896;46.714;17.322;2023-05-11T11:01:49;100151.91;;;17.65;55.46
64521;BME280;50896;46.714;17.322;2023-05-11T11:04:24;100143.88;;;17.58;55.67
64521;BME280;50896;46.714;17.322;2023-05-11T11:07:19;100152.13;;;17.63;55.69
64521;BME280;50896;46.714;17.322;2023-05-11T11:09:57;100150.91;;;17.52;55.20
64521;BME280;50896;46.714;17.322;2023-05-11T11:12:27;100143.50;;;17.48;55.52
64521;BME280;50896;46.714;17.322;2023-05-11T11:14:57;100137.09;;;17.49;55.68
64521;BME280;50896;46.714;17.322;2023-05-11T11:17:29;100130.66;;;17.50;55.96
64521;BME280;50896;46.714;17.322;2023-05-11T11:20:51;100140.78;;;17.54;56.98
64521;BME280;50896;46.714;17.322;2023-05-11T11:23:44;100137.25;;;17.54;55.54
64521;BME280;50896;46.714;17.322;2023-05-11T11:26:13;100129.88;;;17.42;55.73
64521;BME280;50896;46.714;17.322;2023-05-11T11:31:27;100145.59;;;17.46;56.08
64521;BME280;50896;46.714;17.322;2023-05-11T11:33:55;100141.94;;;17.33;55.79
64521;BME280;50896;46.714;17.322;2023-05-11T11:39:10;100141.94;;;17.33;57.02
64521;BME280;50896;46.714;17.322;2023-05-11T11:41:38;100132.03;;;17.20;57.34
64521;BME280;50896;46.714;17.322;2023-05-11T11:44:19;100132.88;;;17.28;57.23
64521;BME280;50896;46.714;17.322;2023-05-11T11:46:46;100131.19;;;17.33;58.30
64521;BME280;50896;46.714;17.322;2023-05-11T11:49:13;100125.41;;;17.30;57.25
64521;BME280;50896;46.714;17.322;2023-05-11T11:51:40;100139.88;;;17.29;56.24
64521;BME280;50896;46.714;17.322;2023-05-11T11:54:07;100139.50;;;17.25;57.70
64521;BME280;50896;46.714;17.322;2023-05-11T11:56:38;100143.81;;;17.26;58.53
64521;BME280;50896;46.714;17.322;2023-05-11T11:59:05;100127.53;;;17.14;58.36
64521;BME280;50896;46.714;17.322;2023-05-11T12:01:37;100132.69;;;17.16;58.14
64521;BME280;50896;46.714;17.322;2023-05-11T12:06:40;100137.88;;;17.11;59.43
64521;BME280;50896;46.714;17.322;2023-05-11T12:09:10;100132.09;;;17.14;59.81
64521;BME280;50896;46.714;17.322;2023-05-11T12:11:37;100130.00;;;17.22;60.67
64521;BME280;50896;46.714;17.322;2023-05-11T12:14:04;100139.50;;;17.25;59.70
64521;BME280;50896;46.714;17.322;2023-05-11T12:16:31;100131.81;;;17.29;56.87
64521;BME280;50896;46.714;17.322;2023-05-11T12:18:59;100121.34;;;17.14;57.05
64521;BME280;50896;46.714;17.322;2023-05-11T12:21:29;100126.94;;;17.12;58.62
64521;BME280;50896;46.714;17.322;2023-05-11T12:24:03;100125.25;;;17.18;57.20
64521;BME280;50896;46.714;17.322;2023-05-11T12:26:31;100122.59;;;17.11;57.28
64521;BME280;50896;46.714;17.322;2023-05-11T12:29:13;100125.09;;;17.06;57.88
64521;BME280;50896;46.714;17.322;2023-05-11T12:31:42;100123.84;;;17.08;58.32
64521;BME280;50896;46.714;17.322;2023-05-11T12:34:19;100130.47;;;17.06;57.76
64521;BME280;50896;46.714;17.322;2023-05-11T12:36:49;100109.22;;;16.98;57.48
64521;BME280;50896;46.714;17.322;2023-05-11T12:39:25;100125.06;;;17.13;57.08
64521;BME280;50896;46.714;17.322;2023-05-11T12:41:54;100120.38;;;17.01;58.79
64521;BME280;50896;46.714;17.322;2023-05-11T12:44:25;100124.06;;;17.00;58.34
64521;BME280;50896;46.714;17.322;2023-05-11T12:46:52;100122.41;;;17.06;56.69
64521;BME280;50896;46.714;17.322;2023-05-11T12:49:21;100118.50;;;17.02;56.67
64521;BME280;50896;46.714;17.322;2023-05-11T12:54:40;100109.16;;;17.11;58.38
64521;BME280;50896;46.714;17.322;2023-05-11T12:57:29;100113.88;;;17.22;57.03
64521;BME280;50896;46.714;17.322;2023-05-11T13:05:13;100103.38;;;17.07;54.50
64521;BME280;50896;46.714;17.322;2023-05-11T13:07:40;100112.69;;;17.05;54.88
64521;BME280;50896;46.714;17.322;2023-05-11T13:10:11;100109.00;;;16.99;55.40
64521;BME280;50896;46.714;17.322;2023-05-11T13:12:48;100113.13;;;17.02;55.37
64521;BME280;50896;46.714;17.322;2023-05-11T13:15:19;100113.13;;;16.95;54.45
64521;BME280;50896;46.714;17.322;2023-05-11T13:17:54;100106.53;;;16.91;53.71
64521;BME280;50896;46.714;17.322;2023-05-11T13:20:27;100116.69;;;16.89;53.79
64521;BME280;50896;46.714;17.322;2023-05-11T13:25:28;100125.78;;;16.74;54.18
64521;BME280;50896;46.714;17.322;2023-05-11T13:27:55;100115.66;;;16.70;54.46
64521;BME280;50896;46.714;17.322;2023-05-11T13:30:22;100128.69;;;16.66;54.05
64521;BME280;50896;46.714;17.322;2023-05-11T13:32:49;100118.59;;;16.55;53.68
64521;BME280;50896;46.714;17.322;2023-05-11T13:35:16;100117.34;;;16.51;52.32